Time;durP1;ratioP1;P1;durP2;ratioP2;P2;SDS_P1;SDS_P2;PMS_P1;PMS_P2;Temp;Humidity;BMP_temperature;BMP_pressure;BME280_temperature;BME280_humidity;BME280_pressure;Samples;Min_cycle;Max_cycle;Signal;HPM_P1;HPM_P2
2023/01/17 07:41:41;;;;;;;10.05;4.82;;;3.20;99.90;;;;;;4882037;29;20059;-74
2023/01/17 07:44:11;;;;;;;9.40;3.58;;;3.30;99.90;;;;;;4886308;29;20383;-75
2023/01/17 07:46:39;;;;;;;4.60;2.65;;;3.30;99.90;;;;;;4885109;29;20061;-75
2023/01/17 07:49:05;;;;;;;4.32;2.38;;;3.30;99.90;;;;;;4889911;29;20052;-75
2023/01/17 07:51:32;;;;;;;3.83;2.10;;;3.30;99.90;;;;;;4890815;29;20055;-75
2023/01/17 07:53:59;;;;;;;7.93;2.17;;;3.30;99.90;;;;;;4890674;29;20063;-75
2023/01/17 07:56:25;;;;;;;3.08;2.38;;;3.30;99.90;;;;;;4889479;29;20041;-75
2023/01/17 07:58:52;;;;;;;4.97;2.25;;;3.40;99.90;;;;;;4886954;29;20429;-75
2023/01/17 08:01:19;;;;;;;5.85;1.88;;;3.40;99.90;;;;;;4889949;29;20528;-75
2023/01/17 08:03:50;;;;;;;4.80;2.45;;;3.50;99.90;;;;;;4887795;29;20083;-75
2023/01/17 08:06:20;;;;;;;2.28;1.60;;;3.50;99.90;;;;;;4882432;29;20045;-75
2023/01/17 08:08:47;;;;;;;5.35;1.70;;;3.60;99.90;;;;;;4883682;29;20060;-75
2023/01/17 08:11:14;;;;;;;2.08;1.35;;;3.60;99.90;;;;;;4887804;29;20059;-75
2023/01/17 08:13:41;;;;;;;7.55;2.85;;;3.70;99.90;;;;;;4884749;29;20060;-75
2023/01/17 08:16:12;;;;;;;12.90;5.13;;;3.70;99.90;;;;;;4889480;29;20076;-75
2023/01/17 08:18:39;;;;;;;8.50;4.32;;;3.70;99.90;;;;;;4883326;29;20049;-75
2023/01/17 08:21:16;;;;;;;10.52;5.22;;;3.70;99.90;;;;;;4884410;29;20057;-75
2023/01/17 08:23:46;;;;;;;14.07;5.43;;;3.80;99.90;;;;;;4872695;29;20044;-75
2023/01/17 08:26:20;;;;;;;15.13;5.22;;;3.80;99.90;;;;;;4902986;29;20048;-75
2023/01/17 08:28:59;;;;;;;9.90;4.28;;;3.80;99.90;;;;;;4887099;29;20445;-75
2023/01/17 08:31:30;;;;;;;11.27;5.67;;;3.80;99.90;;;;;;4870054;29;20064;-74
2023/01/17 08:33:56;;;;;;;9.27;4.38;;;3.80;99.90;;;;;;4888388;29;20060;-74
2023/01/17 08:36:27;;;;;;;14.95;4.55;;;3.80;99.90;;;;;;4889030;29;20069;-75
2023/01/17 08:38:54;;;;;;;9.32;4.03;;;3.80;99.90;;;;;;4884787;29;20116;-75
2023/01/17 08:41:22;;;;;;;15.25;4.20;;;3.80;99.90;;;;;;4892795;29;20040;-75
2023/01/17 08:43:50;;;;;;;9.45;4.70;;;3.80;99.90;;;;;;4889925;29;20056;-75
2023/01/17 08:46:17;;;;;;;11.60;5.35;;;3.70;99.90;;;;;;4891243;29;20053;-74
2023/01/17 08:48:44;;;;;;;12.63;5.70;;;3.70;99.90;;;;;;4889940;29;20057;-74
2023/01/17 08:51:11;;;;;;;20.33;7.45;;;3.70;99.90;;;;;;4890386;29;20051;-75
2023/01/17 08:53:37;;;;;;;23.10;7.18;;;3.70;99.90;;;;;;4891207;29;20544;-78
2023/01/17 08:56:05;;;;;;;20.65;8.63;;;3.70;99.90;;;;;;4887006;29;20057;-75
2023/01/17 08:58:31;;;;;;;17.25;7.53;;;3.70;99.90;;;;;;4880123;29;20053;-75
2023/01/17 09:01:01;;;;;;;15.70;7.40;;;3.70;99.90;;;;;;4888365;29;20057;-75
2023/01/17 09:03:28;;;;;;;11.53;5.17;;;3.70;99.90;;;;;;4888245;29;20131;-75
2023/01/17 09:06:07;;;;;;;5.75;2.97;;;3.70;99.90;;;;;;4878540;29;20136;-77
2023/01/17 09:08:34;;;;;;;6.70;3.28;;;3.60;99.90;;;;;;4889876;29;20049;-76
2023/01/17 09:11:05;;;;;;;5.50;3.60;;;3.40;99.90;;;;;;4889795;29;20061;-76
2023/01/17 09:13:32;;;;;;;12.75;4.65;;;3.40;99.90;;;;;;4888771;29;20071;-76
2023/01/17 09:16:00;;;;;;;15.18;5.07;;;3.50;99.90;;;;;;4891058;29;20064;-76
2023/01/17 09:18:27;;;;;;;11.60;4.63;;;3.50;99.90;;;;;;4876547;29;20045;-76
2023/01/17 09:20:57;;;;;;;9.35;3.88;;;3.50;99.90;;;;;;4892925;29;20186;-76
2023/01/17 09:23:26;;;;;;;10.35;4.45;;;3.60;99.90;;;;;;4884715;29;20049;-76
2023/01/17 09:25:57;;;;;;;7.28;4.07;;;3.70;99.90;;;;;;4886406;29;20051;-76
2023/01/17 09:28:25;;;;;;;7.95;3.22;;;3.80;99.90;;;;;;4888988;29;20555;-76
2023/01/17 09:30:53;;;;;;;8.80;3.13;;;3.80;99.90;;;;;;4892636;29;20053;-76
2023/01/17 09:33:21;;;;;;;6.50;3.13;;;3.90;99.90;;;;;;4889578;29;20049;-76
2023/01/17 09:35:48;;;;;;;4.85;2.63;;;4.00;99.90;;;;;;4887759;29;20057;-77
2023/01/17 09:38:15;;;;;;;5.78;2.60;;;4.10;99.90;;;;;;4889639;29;20395;-76
2023/01/17 09:40:46;;;;;;;5.55;2.90;;;4.10;99.90;;;;;;4888480;29;20585;-77
2023/01/17 09:43:39;;;;;;;4.97;2.65;;;4.00;99.90;;;;;;4899647;29;20044;-76
2023/01/17 09:46:21;;;;;;;5.72;3.13;;;4.00;99.90;;;;;;4888127;29;20577;-76
2023/01/17 09:48:52;;;;;;;6.50;2.88;;;3.90;99.90;;;;;;4886359;29;20088;-76
2023/01/17 09:51:23;;;;;;;9.52;3.45;;;4.00;99.90;;;;;;4884169;29;20055;-76
2023/01/17 09:53:51;;;;;;;5.30;3.20;;;4.10;99.90;;;;;;4889738;29;20402;-76
2023/01/17 09:56:28;;;;;;;6.43;3.10;;;4.10;99.90;;;;;;4868676;29;20049;-76
2023/01/17 09:59:17;;;;;;;8.05;2.90;;;4.20;99.90;;;;;;4888741;29;20053;-76
2023/01/17 10:02:16;;;;;;;6.43;2.88;;;4.30;99.90;;;;;;4889101;29;20101;-76
2023/01/17 10:05:01;;;;;;;6.57;3.35;;;4.30;99.90;;;;;;4890508;29;20195;-76
2023/01/17 10:07:42;;;;;;;7.53;3.72;;;4.40;99.90;;;;;;4887876;29;20620;-76
2023/01/17 10:10:27;;;;;;;6.82;3.60;;;4.40;99.90;;;;;;4885300;29;20067;-76
2023/01/17 10:12:54;;;;;;;7.68;3.85;;;4.40;99.90;;;;;;4892542;29;20064;-77
2023/01/17 10:15:42;;;;;;;7.97;3.90;;;4.40;99.90;;;;;;4882119;29;20044;-76
2023/01/17 10:19:03;;;;;;;7.38;3.42;;;4.40;99.90;;;;;;4898013;29;20434;-77
2023/01/17 10:22:01;;;;;;;4.50;2.72;;;4.50;99.90;;;;;;4836070;29;20050;-76
2023/01/17 10:24:39;;;;;;;5.47;3.05;;;4.20;99.90;;;;;;4890292;29;20067;-77
2023/01/17 10:27:29;;;;;;;5.72;3.33;;;4.30;99.90;;;;;;4890216;29;20049;-76
2023/01/17 10:29:56;;;;;;;8.73;2.60;;;4.30;99.90;;;;;;4889196;29;20049;-76
2023/01/17 10:32:25;;;;;;;6.82;2.75;;;4.40;99.90;;;;;;4890658;29;20052;-77
2023/01/17 10:34:52;;;;;;;6.95;2.88;;;4.40;99.90;;;;;;4890824;29;20510;-76
2023/01/17 10:37:29;;;;;;;10.43;2.75;;;4.50;99.90;;;;;;4887833;29;20048;-76
2023/01/17 10:40:10;;;;;;;4.97;2.72;;;4.40;99.90;;;;;;4886989;29;20502;-76
2023/01/17 10:42:49;;;;;;;6.93;3.47;;;4.50;99.90;;;;;;4885202;29;20522;-76
2023/01/17 10:45:27;;;;;;;12.00;3.17;;;4.50;99.90;;;;;;4889285;29;20151;-76
2023/01/17 10:48:11;;;;;;;10.38;3.17;;;4.50;99.90;;;;;;4887140;29;20087;-76
2023/01/17 10:50:57;;;;;;;7.05;2.97;;;4.60;99.90;;;;;;4889767;29;20614;-76
2023/01/17 10:53:45;;;;;;;5.13;3.17;;;4.60;99.90;;;;;;4891161;29;20049;-76
2023/01/17 10:56:14;;;;;;;9.95;3.20;;;4.70;99.90;;;;;;4892596;29;20055;-76
2023/01/17 10:58:41;;;;;;;7.10;3.83;;;4.70;99.90;;;;;;4893580;29;20049;-76
2023/01/17 11:01:19;;;;;;;9.43;3.53;;;4.80;99.90;;;;;;4890509;29;20059;-76
2023/01/17 11:03:50;;;;;;;8.50;3.33;;;4.90;99.90;;;;;;4884017;29;20418;-76
2023/01/17 11:06:21;;;;;;;6.75;3.35;;;4.90;99.90;;;;;;4890140;29;20055;-76
2023/01/17 11:08:58;;;;;;;4.85;2.92;;;4.90;99.90;;;;;;4887650;29;20057;-76
2023/01/17 11:11:30;;;;;;;7.57;3.60;;;4.90;99.90;;;;;;4887701;29;20134;-76
2023/01/17 11:14:05;;;;;;;6.28;3.35;;;5.00;99.90;;;;;;4880352;29;20065;-76
2023/01/17 11:16:32;;;;;;;9.18;3.05;;;5.00;99.90;;;;;;4891718;29;20056;-76
2023/01/17 11:19:11;;;;;;;10.02;2.92;;;5.00;99.90;;;;;;4892082;29;20049;-77
2023/01/17 11:21:39;;;;;;;6.45;3.45;;;5.10;99.90;;;;;;4891199;29;20501;-76
2023/01/17 11:24:15;;;;;;;11.82;2.97;;;5.20;99.90;;;;;;4893991;29;20052;-76
2023/01/17 11:26:48;;;;;;;5.22;3.10;;;5.20;99.90;;;;;;4888460;29;20049;-76
2023/01/17 11:29:33;;;;;;;5.63;2.60;;;5.20;99.90;;;;;;4885452;29;20071;-76
2023/01/17 11:32:26;;;;;;;4.95;2.58;;;5.30;99.90;;;;;;4888245;29;20056;-76
2023/01/17 11:35:04;;;;;;;;;;;5.40;99.90;;;;;;4887521;29;20056;-77
2023/01/17 11:37:31;;;;;;;11.32;3.40;;;5.40;99.90;;;;;;4889121;29;19931;-77
2023/01/17 11:40:34;;;;;;;9.88;4.88;;;5.40;99.90;;;;;;4892689;29;20056;-76
2023/01/17 11:43:26;;;;;;;4.68;2.78;;;5.40;99.90;;;;;;4857547;29;20048;-75
2023/01/17 11:46:16;;;;;;;7.38;3.65;;;5.40;99.90;;;;;;4883429;29;20045;-77
2023/01/17 11:48:51;;;;;;;7.32;2.70;;;5.40;99.90;;;;;;4877104;29;20057;-76
2023/01/17 11:51:31;;;;;;;8.52;2.70;;;5.40;99.90;;;;;;4891461;29;20052;-76
2023/01/17 11:54:25;;;;;;;6.38;2.70;;;5.40;99.90;;;;;;4889499;29;20065;-76
2023/01/17 11:57:00;;;;;;;7.85;3.10;;;5.40;99.90;;;;;;4886905;29;20053;-76
2023/01/17 11:59:29;;;;;;;9.32;2.65;;;5.40;99.90;;;;;;4886582;29;20080;-76
2023/01/17 12:02:20;;;;;;;3.90;2.13;;;5.40;99.90;;;;;;4889643;29;20049;-76
2023/01/17 12:05:03;;;;;;;6.45;2.35;;;5.40;99.90;;;;;;4890020;29;20041;-76
2023/01/17 12:07:42;;;;;;;4.25;2.38;;;5.50;99.90;;;;;;4891446;29;20053;-77
2023/01/17 12:10:28;;;;;;;6.93;2.85;;;5.40;99.90;;;;;;4908517;29;20044;-76
2023/01/17 12:16:31;;;;;;;4.82;2.70;;;5.50;99.90;;;;;;4893290;29;20140;-77
2023/01/17 12:19:04;;;;;;;5.60;2.25;;;5.60;99.90;;;;;;4892689;29;20053;-77
2023/01/17 12:21:50;;;;;;;7.00;2.38;;;5.70;99.90;;;;;;4884508;29;20049;-78
2023/01/17 12:24:32;;;;;;;5.07;2.35;;;5.80;99.90;;;;;;4892852;29;20925;-77
2023/01/17 12:27:06;;;;;;;4.07;2.40;;;5.80;99.90;;;;;;4891222;29;20059;-77
2023/01/17 12:30:02;;;;;;;6.03;2.63;;;5.80;99.90;;;;;;4877238;29;20128;-77
2023/01/17 12:32:45;;;;;;;4.10;2.33;;;5.80;99.90;;;;;;4890830;29;20425;-77
2023/01/17 12:35:21;;;;;;;5.15;2.40;;;5.80;99.90;;;;;;4892949;29;20052;-77
2023/01/17 12:37:55;;;;;;;4.88;2.13;;;5.80;99.90;;;;;;4892742;29;20549;-77
2023/01/17 12:40:45;;;;;;;4.22;2.35;;;5.80;99.90;;;;;;4892062;29;20108;-77
2023/01/17 12:43:19;;;;;;;8.02;2.72;;;5.80;99.90;;;;;;4894074;29;20617;-76
2023/01/17 12:45:50;;;;;;;4.15;2.05;;;5.90;99.90;;;;;;4890421;29;20143;-77
2023/01/17 12:48:19;;;;;;;5.90;3.03;;;5.90;99.90;;;;;;4891083;29;20060;-77
2023/01/17 12:50:57;;;;;;;8.00;3.97;;;5.90;99.90;;;;;;4891745;29;20057;-77
2023/01/17 12:53:41;;;;;;;8.32;3.13;;;5.90;99.90;;;;;;4874438;29;20320;-78
2023/01/17 12:56:23;;;;;;;8.45;3.15;;;6.00;99.90;;;;;;4893281;29;20522;-77
2023/01/17 12:58:59;;;;;;;7.45;3.25;;;6.00;99.90;;;;;;4891690;29;20057;-77
2023/01/17 13:01:38;;;;;;;6.40;3.05;;;6.00;99.90;;;;;;4892116;29;20041;-77
2023/01/17 13:04:17;;;;;;;6.10;3.08;;;5.90;99.90;;;;;;4891336;29;20057;-77
2023/01/17 13:06:59;;;;;;;9.98;3.25;;;5.80;99.90;;;;;;4888859;29;20051;-77
2023/01/17 13:09:36;;;;;;;6.50;2.70;;;5.80;99.90;;;;;;4886463;29;20422;-78
2023/01/17 13:12:12;;;;;;;8.88;4.78;;;5.80;99.90;;;;;;4886309;29;20088;-77
2023/01/17 13:14:38;;;;;;;8.48;5.00;;;5.80;99.90;;;;;;4888508;29;20057;-82
2023/01/17 13:17:32;;;;;;;23.27;9.88;;;5.80;99.90;;;;;;4896074;29;20056;-78
2023/01/17 13:20:02;;;;;;;17.02;8.48;;;5.90;99.90;;;;;;4891192;29;20061;-78
2023/01/17 13:22:30;;;;;;;10.63;2.85;;;5.90;99.90;;;;;;4899361;29;20407;-78
2023/01/17 13:25:25;;;;;;;6.10;3.17;;;5.70;99.90;;;;;;4896480;29;20590;-78
2023/01/17 13:28:19;;;;;;;10.75;5.57;;;5.70;99.90;;;;;;4894040;29;20049;-78
2023/01/17 13:31:03;;;;;;;13.73;8.30;;;5.70;99.90;;;;;;4889934;29;20049;-77
2023/01/17 13:33:39;;;;;;;9.18;4.80;;;5.70;99.90;;;;;;4896151;29;20072;-77
2023/01/17 13:36:21;;;;;;;5.78;3.10;;;5.80;99.90;;;;;;4891696;29;20132;-77
2023/01/17 13:39:32;;;;;;;10.98;3.20;;;5.80;99.90;;;;;;4888910;29;20063;-77
2023/01/17 13:42:36;;;;;;;5.72;2.70;;;5.80;99.90;;;;;;4887799;29;20143;-77
2023/01/17 13:45:17;;;;;;;9.85;3.38;;;5.80;99.90;;;;;;4890349;29;20056;-77
2023/01/17 13:47:44;;;;;;;4.93;2.83;;;5.80;99.90;;;;;;4893457;29;20049;-77
2023/01/17 13:50:30;;;;;;;9.25;3.28;;;5.80;99.90;;;;;;4890365;29;20052;-77
2023/01/17 13:52:56;;;;;;;11.52;5.13;;;5.80;99.90;;;;;;4893868;29;20052;-77
2023/01/17 13:55:44;;;;;;;8.63;4.45;;;5.80;99.90;;;;;;4891632;29;20426;-78
2023/01/17 13:58:50;;;;;;;8.48;4.07;;;5.80;99.90;;;;;;4872286;29;20453;-78
2023/01/17 14:01:22;;;;;;;7.53;3.28;;;5.80;99.90;;;;;;4890324;29;20053;-77
2023/01/17 14:03:49;;;;;;;6.22;3.25;;;5.80;99.90;;;;;;4888790;29;20056;-77
2023/01/17 14:06:36;;;;;;;11.98;3.97;;;5.80;99.90;;;;;;4871504;29;20072;-77
2023/01/17 14:09:22;;;;;;;6.35;3.45;;;5.80;99.90;;;;;;4890678;29;20053;-77
2023/01/17 14:11:51;;;;;;;6.63;3.53;;;5.80;99.90;;;;;;4891636;29;20399;-77
2023/01/17 14:14:40;;;;;;;5.40;2.80;;;5.80;99.90;;;;;;4892906;29;20063;-77
2023/01/17 14:17:19;;;;;;;5.18;3.25;;;5.80;99.90;;;;;;4902082;29;20582;-77
2023/01/17 14:19:51;;;;;;;9.25;2.97;;;5.80;99.90;;;;;;4895415;29;20085;-77
2023/01/17 14:22:18;;;;;;;13.18;3.97;;;5.80;99.90;;;;;;4896279;29;20128;-79
2023/01/17 14:25:10;;;;;;;5.45;3.10;;;5.70;99.90;;;;;;4888011;29;20048;-77
2023/01/17 14:27:52;;;;;;;8.35;3.85;;;5.70;99.90;;;;;;4893583;29;20061;-77
2023/01/17 14:30:34;;;;;;;5.13;3.50;;;5.80;99.90;;;;;;4890018;29;20057;-78
2023/01/17 14:33:00;;;;;;;6.82;3.80;;;5.80;99.90;;;;;;4894908;29;20067;-77
2023/01/17 14:35:36;;;;;;;20.15;11.48;;;5.70;99.90;;;;;;4897256;29;20131;-77
2023/01/17 14:38:25;;;;;;;12.52;6.03;;;5.70;99.90;;;;;;4889960;29;20471;-77
2023/01/17 14:41:06;;;;;;;11.90;4.20;;;5.70;99.90;;;;;;4895140;29;20057;-77
2023/01/17 14:43:36;;;;;;;9.27;4.20;;;5.60;99.90;;;;;;4895000;29;20041;-77
2023/01/17 14:46:07;;;;;;;11.40;4.18;;;5.60;99.90;;;;;;4897378;29;20425;-77
2023/01/17 14:48:39;;;;;;;12.65;3.53;;;5.60;99.90;;;;;;4892288;29;20071;-77
2023/01/17 14:51:13;;;;;;;11.02;4.07;;;5.60;99.90;;;;;;4894856;29;20067;-77
2023/01/17 14:53:52;;;;;;;7.32;3.88;;;5.60;99.90;;;;;;4879601;29;20055;-76
2023/01/17 14:56:19;;;;;;;5.57;3.38;;;5.50;99.90;;;;;;4871272;29;20059;-77
2023/01/17 14:58:46;;;;;;;7.00;4.68;;;5.50;99.90;;;;;;4890358;29;21693;-78
2023/01/17 15:01:19;;;;;;;13.88;10.48;;;5.50;99.90;;;;;;4896048;29;20144;-78
2023/01/17 15:03:52;;;;;;;15.43;9.55;;;5.50;99.90;;;;;;4893602;29;20049;-78
2023/01/17 15:06:20;;;;;;;16.48;12.18;;;5.40;99.90;;;;;;4897513;29;20377;-77
2023/01/17 15:08:48;;;;;;;14.65;7.53;;;5.40;99.90;;;;;;4883322;29;20052;-77
2023/01/17 15:11:26;;;;;;;10.27;6.28;;;5.40;99.90;;;;;;4901116;29;20146;-77
2023/01/17 15:13:56;;;;;;;9.27;6.18;;;5.40;99.90;;;;;;4895370;29;20049;-77
2023/01/17 15:16:22;;;;;;;;;;;5.30;99.90;;;;;;4880854;29;20080;-76
2023/01/17 15:18:51;;;;;;;14.60;7.95;;;5.30;99.90;;;;;;4897430;29;19927;-77
2023/01/17 15:21:21;;;;;;;15.57;9.00;;;5.30;99.90;;;;;;4892040;29;20055;-77
2023/01/17 15:23:52;;;;;;;18.63;9.15;;;5.30;99.90;;;;;;4890198;29;20056;-77
2023/01/17 15:26:22;;;;;;;14.77;9.73;;;5.30;99.90;;;;;;4910994;29;20052;-77
2023/01/17 15:28:51;;;;;;;20.58;11.68;;;5.20;99.90;;;;;;4894125;29;20144;-77
2023/01/17 15:31:36;;;;;;;21.52;12.07;;;5.20;99.90;;;;;;4875419;29;20045;-77
2023/01/17 15:34:07;;;;;;;15.80;10.00;;;5.20;99.90;;;;;;4896968;29;20049;-77
2023/01/17 15:36:34;;;;;;;20.95;11.50;;;5.20;99.90;;;;;;4885496;29;20052;-77
2023/01/17 15:39:14;;;;;;;19.40;11.35;;;5.10;99.90;;;;;;4894534;29;20052;-77
2023/01/17 15:41:41;;;;;;;22.73;11.68;;;5.10;99.90;;;;;;4890724;29;20056;-77
2023/01/17 15:44:34;;;;;;;21.20;10.20;;;5.10;99.90;;;;;;4885551;29;20068;-77
2023/01/17 15:47:33;;;;;;;14.02;9.25;;;5.10;99.90;;;;;;4882584;29;20048;-77
2023/01/17 15:50:17;;;;;;;14.25;10.27;;;5.10;99.90;;;;;;4887167;29;20665;-77
2023/01/17 15:52:59;;;;;;;17.02;10.90;;;5.10;99.90;;;;;;4879532;29;20599;-77
2023/01/17 15:55:37;;;;;;;17.40;10.73;;;5.00;99.90;;;;;;4891353;29;20076;-77
2023/01/17 15:58:27;;;;;;;16.85;9.98;;;5.00;99.90;;;;;;4892867;29;20060;-77
2023/01/17 16:00:54;;;;;;;12.35;8.38;;;5.00;99.90;;;;;;4892205;29;20049;-77
2023/01/17 16:03:28;;;;;;;11.02;7.07;;;5.00;99.90;;;;;;4894828;29;20478;-77
2023/01/17 16:05:56;;;;;;;12.90;7.75;;;5.00;99.90;;;;;;4893406;29;20049;-77
2023/01/17 16:08:38;;;;;;;11.32;7.53;;;5.00;99.90;;;;;;4879622;29;20049;-77
2023/01/17 16:11:06;;;;;;;10.85;7.97;;;5.00;99.90;;;;;;4891099;29;20065;-77
2023/01/17 16:13:37;;;;;;;19.48;8.77;;;4.90;99.90;;;;;;4871044;29;20608;-77
2023/01/17 16:16:12;;;;;;;14.10;8.25;;;4.90;99.90;;;;;;4881604;29;20080;-77
2023/01/17 16:18:39;;;;;;;13.27;9.60;;;4.90;99.90;;;;;;4891687;29;20080;-77
2023/01/17 16:21:19;;;;;;;10.50;8.48;;;4.90;99.90;;;;;;4892635;29;20053;-77
2023/01/17 16:23:46;;;;;;;11.07;8.70;;;4.80;99.90;;;;;;4881541;29;20049;-77
2023/01/17 16:26:14;;;;;;;15.88;10.57;;;4.80;99.90;;;;;;4878276;29;20048;-77
2023/01/17 16:28:40;;;;;;;10.40;7.18;;;4.80;99.90;;;;;;4893039;29;20049;-77
2023/01/17 16:31:07;;;;;;;10.60;8.57;;;4.80;99.90;;;;;;4891918;29;20126;-77
2023/01/17 16:33:34;;;;;;;9.63;8.07;;;4.80;99.90;;;;;;4883141;29;20053;-77
2023/01/17 16:36:01;;;;;;;10.73;8.05;;;4.70;99.90;;;;;;4889363;29;20045;-77
2023/01/17 16:38:27;;;;;;;11.20;7.55;;;4.70;99.90;;;;;;4891925;29;20045;-77
2023/01/17 16:40:54;;;;;;;12.75;8.50;;;4.70;99.90;;;;;;4874476;29;20059;-77
2023/01/17 16:43:21;;;;;;;13.25;8.80;;;4.70;99.90;;;;;;4889469;29;20062;-77
2023/01/17 16:45:51;;;;;;;11.70;8.90;;;4.70;99.90;;;;;;4894923;29;20055;-77
2023/01/17 16:48:18;;;;;;;;;;;4.70;99.90;;;;;;4893472;29;20103;-77
2023/01/17 16:50:49;;;;;;;10.70;7.30;;;4.60;99.90;;;;;;4872994;29;19935;-77
2023/01/17 16:53:20;;;;;;;11.70;8.77;;;4.60;99.90;;;;;;4891522;29;20135;-77
2023/01/17 16:55:52;;;;;;;11.52;8.15;;;4.60;99.90;;;;;;4891857;29;20060;-76
2023/01/17 16:58:19;;;;;;;11.52;7.97;;;4.60;99.90;;;;;;4874968;29;20052;-77
2023/01/17 17:00:46;;;;;;;10.40;7.78;;;4.60;99.90;;;;;;4891998;29;20073;-76
2023/01/17 17:03:18;;;;;;;12.00;7.90;;;4.50;99.90;;;;;;4885378;29;20044;-76
2023/01/17 17:05:57;;;;;;;15.25;10.15;;;4.50;99.90;;;;;;4887340;29;20127;-76
2023/01/17 17:08:23;;;;;;;14.30;9.18;;;4.50;99.90;;;;;;4887757;29;20049;-77
2023/01/17 17:10:50;;;;;;;11.40;8.45;;;4.50;99.90;;;;;;4891862;29;20067;-76
2023/01/17 17:13:17;;;;;;;12.73;8.80;;;4.50;99.90;;;;;;4890963;29;20568;-77
2023/01/17 17:15:44;;;;;;;10.57;7.18;;;4.50;99.90;;;;;;4891286;29;20060;-76
2023/01/17 17:18:16;;;;;;;10.93;7.82;;;4.50;99.90;;;;;;4890230;29;20052;-77
2023/01/17 17:20:43;;;;;;;10.15;8.70;;;4.50;99.90;;;;;;4894231;29;20048;-77
2023/01/17 17:23:10;;;;;;;9.77;7.95;;;4.50;99.90;;;;;;4893196;29;20521;-77
2023/01/17 17:25:37;;;;;;;8.73;7.15;;;4.50;99.90;;;;;;4889352;29;20462;-77
2023/01/17 17:28:05;;;;;;;11.25;8.48;;;4.50;99.90;;;;;;4884411;29;20063;-77
2023/01/17 17:30:33;;;;;;;11.65;8.73;;;4.50;99.90;;;;;;4893763;29;20104;-77
2023/01/17 17:33:03;;;;;;;13.65;9.45;;;4.50;99.90;;;;;;4893234;29;20060;-77
2023/01/17 17:35:33;;;;;;;13.32;9.68;;;4.50;99.90;;;;;;4876991;29;20474;-77
2023/01/17 17:37:59;;;;;;;14.70;10.27;;;4.50;99.90;;;;;;4891107;29;20059;-77
2023/01/17 17:40:26;;;;;;;15.35;10.55;;;4.50;99.90;;;;;;4871157;29;20044;-77
2023/01/17 17:42:53;;;;;;;14.30;10.75;;;4.60;99.90;;;;;;4893488;29;20049;-77
2023/01/17 17:45:19;;;;;;;13.13;9.85;;;4.60;99.90;;;;;;4890372;29;20054;-77
2023/01/17 17:47:46;;;;;;;14.77;10.60;;;4.60;99.90;;;;;;4890533;29;20056;-76
2023/01/17 17:50:13;;;;;;;14.25;11.00;;;4.60;99.90;;;;;;4891400;29;20494;-77
2023/01/17 17:52:39;;;;;;;16.08;11.50;;;4.60;99.90;;;;;;4891084;29;20147;-77
2023/01/17 17:55:06;;;;;;;12.95;9.55;;;4.50;99.90;;;;;;4891158;29;20055;-77
2023/01/17 17:57:33;;;;;;;16.33;11.95;;;4.50;99.90;;;;;;4888506;29;20053;-77
2023/01/17 17:59:59;;;;;;;15.60;11.82;;;4.50;99.90;;;;;;4888400;29;20421;-77
2023/01/17 18:02:26;;;;;;;17.60;12.95;;;4.50;99.90;;;;;;4890794;29;20044;-76
2023/01/17 18:04:53;;;;;;;16.85;13.10;;;4.50;99.90;;;;;;4895190;29;20083;-76
2023/01/17 18:07:20;;;;;;;16.17;11.65;;;4.50;99.90;;;;;;4890968;29;20055;-76
2023/01/17 18:09:47;;;;;;;15.10;11.20;;;4.50;99.90;;;;;;4893215;29;20052;-76
2023/01/17 18:12:13;;;;;;;17.27;13.02;;;4.40;99.90;;;;;;4890673;29;20059;-76
2023/01/17 18:14:40;;;;;;;14.60;10.77;;;4.40;99.90;;;;;;4873907;29;20052;-76
2023/01/17 18:17:07;;;;;;;14.55;10.18;;;4.40;99.90;;;;;;4894333;29;20052;-76
2023/01/17 18:19:33;;;;;;;8.75;6.40;;;4.40;99.90;;;;;;4885342;29;20052;-76
2023/01/17 18:22:02;;;;;;;11.43;6.93;;;4.30;99.90;;;;;;4892184;29;20056;-76
2023/01/17 18:24:29;;;;;;;9.02;5.63;;;4.30;99.90;;;;;;4888464;29;20498;-76
2023/01/17 18:26:56;;;;;;;10.20;4.93;;;4.30;99.90;;;;;;4891098;29;20055;-76
2023/01/17 18:29:25;;;;;;;9.70;4.45;;;4.30;99.90;;;;;;4896507;29;20534;-76
2023/01/17 18:31:52;;;;;;;5.80;3.28;;;4.30;99.90;;;;;;4892019;29;20446;-76
2023/01/17 18:34:27;;;;;;;9.35;4.38;;;4.30;99.90;;;;;;4876927;29;20051;-76
2023/01/17 18:36:54;;;;;;;3.10;1.63;;;4.30;99.90;;;;;;4884315;29;20051;-76
2023/01/17 18:39:26;;;;;;;2.85;1.90;;;4.30;99.90;;;;;;4892220;29;20075;-76
2023/01/17 18:41:53;;;;;;;2.70;2.03;;;4.30;99.90;;;;;;4881099;29;20086;-76
2023/01/17 18:44:20;;;;;;;2.05;1.75;;;4.30;99.90;;;;;;4890401;29;20052;-76
2023/01/17 18:46:49;;;;;;;2.92;1.77;;;4.30;99.90;;;;;;4891058;29;20143;-76
2023/01/17 18:49:17;;;;;;;2.58;1.98;;;4.30;99.90;;;;;;4890499;29;20053;-76
2023/01/17 18:51:47;;;;;;;3.85;2.28;;;4.30;99.90;;;;;;4890705;29;20049;-76
2023/01/17 18:54:15;;;;;;;3.53;1.98;;;4.30;99.90;;;;;;4874562;29;20048;-76
2023/01/17 18:56:42;;;;;;;1.98;1.30;;;4.30;99.90;;;;;;4893322;29;20048;-76
2023/01/17 18:59:12;;;;;;;1.75;1.35;;;4.30;99.90;;;;;;4893146;29;20041;-76
2023/01/17 19:01:42;;;;;;;3.85;2.30;;;4.30;99.90;;;;;;4893409;29;20053;-75
2023/01/17 19:04:12;;;;;;;4.35;2.60;;;4.30;99.90;;;;;;4890983;29;20053;-76
2023/01/17 19:06:41;;;;;;;3.33;2.17;;;4.30;99.90;;;;;;4893248;29;20049;-75
2023/01/17 19:09:10;;;;;;;3.28;1.40;;;4.30;99.90;;;;;;4890871;29;20047;-76
2023/01/17 19:11:37;;;;;;;4.45;1.77;;;4.40;99.90;;;;;;4887657;29;20095;-76
2023/01/17 19:14:05;;;;;;;2.33;1.60;;;4.40;99.90;;;;;;4892236;29;20052;-76
2023/01/17 19:16:35;;;;;;;3.30;2.20;;;4.40;99.90;;;;;;4890142;29;20052;-75
2023/01/17 19:19:13;;;;;;;3.40;1.70;;;4.40;99.90;;;;;;4886274;29;20486;-76
2023/01/17 19:21:40;;;;;;;4.05;2.42;;;4.50;99.90;;;;;;4892929;29;20048;-76
2023/01/17 19:24:09;;;;;;;2.55;1.92;;;4.50;99.90;;;;;;4877296;29;20051;-76
2023/01/17 19:26:35;;;;;;;2.78;1.90;;;4.50;99.90;;;;;;4892272;29;20139;-75
2023/01/17 19:29:03;;;;;;;2.05;1.10;;;4.50;99.90;;;;;;4890771;29;20048;-76
2023/01/17 19:31:34;;;;;;;0.85;0.85;;;4.40;99.90;;;;;;4887948;29;20057;-75
2023/01/17 19:34:01;;;;;;;2.15;1.25;;;4.50;99.90;;;;;;4892466;29;20061;-76
2023/01/17 19:36:33;;;;;;;5.40;2.45;;;4.50;99.90;;;;;;4888247;29;20044;-76
2023/01/17 19:39:01;;;;;;;2.17;1.10;;;4.50;99.90;;;;;;4883907;29;20139;-76
2023/01/17 19:41:33;;;;;;;1.55;1.17;;;4.50;99.90;;;;;;4891266;29;20048;-76
2023/01/17 19:44:05;;;;;;;1.50;1.08;;;4.50;99.90;;;;;;4889342;29;20048;-75
2023/01/17 19:46:33;;;;;;;2.97;1.30;;;4.50;99.90;;;;;;4875726;29;20053;-76
2023/01/17 19:49:01;;;;;;;1.90;1.50;;;4.50;99.90;;;;;;4880122;29;20076;-76
2023/01/17 19:51:27;;;;;;;1.70;1.27;;;4.50;99.90;;;;;;4892090;29;20063;-76
2023/01/17 19:53:55;;;;;;;1.38;0.93;;;4.50;99.90;;;;;;4891480;29;20053;-76
2023/01/17 19:56:24;;;;;;;3.72;2.15;;;4.50;99.90;;;;;;4890595;29;20541;-76
2023/01/17 19:58:51;;;;;;;2.25;1.45;;;4.50;99.90;;;;;;4888518;29;20056;-76
2023/01/17 20:01:20;;;;;;;2.42;1.20;;;4.50;99.90;;;;;;4890187;29;20041;-76
2023/01/17 20:03:50;;;;;;;1.65;1.20;;;4.50;99.90;;;;;;4886886;29;20082;-75
2023/01/17 20:06:19;;;;;;;2.38;1.30;;;4.60;99.90;;;;;;4886751;29;20045;-76
2023/01/17 20:08:46;;;;;;;1.87;1.40;;;4.60;99.90;;;;;;4887682;29;20541;-75
2023/01/17 20:11:18;;;;;;;2.38;1.40;;;4.60;99.90;;;;;;4891876;29;20678;-76
2023/01/17 20:13:46;;;;;;;2.20;1.67;;;4.60;99.90;;;;;;4876220;29;20061;-76
2023/01/17 20:16:15;;;;;;;3.45;1.50;;;4.60;99.90;;;;;;4890506;29;20045;-76
2023/01/17 20:18:42;;;;;;;1.10;0.98;;;4.60;99.90;;;;;;4890477;29;20052;-76
2023/01/17 20:21:12;;;;;;;5.13;1.30;;;4.60;99.90;;;;;;4888630;29;20049;-76
2023/01/17 20:23:45;;;;;;;2.45;1.38;;;4.60;99.90;;;;;;4886156;29;20048;-76
2023/01/17 20:26:17;;;;;;;1.15;0.90;;;4.60;99.90;;;;;;4889050;29;20131;-75
2023/01/17 20:28:46;;;;;;;3.90;1.38;;;4.60;99.90;;;;;;4888416;29;20060;-76
2023/01/17 20:31:15;;;;;;;2.00;1.40;;;4.50;99.90;;;;;;4882885;29;20045;-75
2023/01/17 20:33:44;;;;;;;4.32;2.05;;;4.60;99.90;;;;;;4876557;29;20068;-76
2023/01/17 20:36:13;;;;;;;3.17;1.75;;;4.60;99.90;;;;;;4888829;29;20079;-76
2023/01/17 20:38:44;;;;;;;1.42;1.25;;;4.60;99.90;;;;;;4889241;29;20049;-76
2023/01/17 20:41:28;;;;;;;1.75;0.93;;;4.60;99.90;;;;;;4892976;29;20052;-76
2023/01/17 20:43:58;;;;;;;2.30;1.00;;;4.60;99.90;;;;;;4891119;29;20429;-76
2023/01/17 20:46:26;;;;;;;;;;;4.60;99.90;;;;;;4892017;29;20044;-76
2023/01/17 20:48:55;;;;;;;1.02;0.85;;;4.50;99.90;;;;;;4891321;29;19930;-76
